Chadstone Weather > Observations for 11/09/20

Select Day:



Observations
Time Temp Hum DP Wind Gust Dir Rain >9am Press
C % C kph kph mm hPa
00:00 14.7 74 10.1 8.5 19.4 NE 0.0 1032.0
00:10 14.7 74 10.1 8.8 19.4 N 0.0 1032.1
00:20 14.6 74 10.0 9.2 14.8 NNE 0.0 1032.3
00:30 14.5 74 9.9 9.3 19.4 N 0.0 1032.5
00:40 14.7 74 10.1 9.7 17.3 NNE 0.0 1032.5
00:50 14.7 74 10.1 9.4 15.8 N 0.0 1032.4
01:00 14.7 74 10.1 9.2 18.4 NNE 0.0 1032.4
01:10 14.6 73 9.8 8.4 17.3 N 0.0 1032.5
01:20 14.4 73 9.6 8.2 15.8 NNE 0.0 1032.4
01:30 14.3 73 9.5 9.6 20.9 N 0.0 1032.2
01:40 14.6 70 9.2 13.0 29.5 N 0.0 1032.1
01:50 14.6 68 8.8 14.8 27.0 NNW 0.0 1032.2
02:00 14.6 67 8.5 15.1 23.4 N 0.0 1032.0
02:10 14.6 66 8.3 13.2 23.4 NNE 0.0 1031.8
02:20 14.5 65 8.0 12.8 22.0 N 0.0 1031.8
02:30 14.5 65 8.0 13.0 29.5 NNE 0.0 1031.8
02:40 14.4 65 7.9 10.7 19.4 N 0.0 1031.8
02:50 14.4 64 7.7 11.8 25.6 N 0.0 1031.6
03:00 14.3 64 7.6 10.5 25.6 N 0.0 1031.6
03:10 14.3 64 7.6 12.7 30.6 NE 0.0 1031.3
03:20 14.3 64 7.6 10.6 19.4 NE 0.0 1031.5
03:30 14.3 64 7.6 15.3 27.0 NNW 0.0 1031.3
03:40 14.4 63 7.5 15.1 25.6 N 0.0 1031.4
03:50 14.4 62 7.2 14.5 24.5 N 0.0 1031.5
04:00 14.2 62 7.0 10.7 19.4 N 0.0 1031.6
04:10 14.2 62 7.0 11.7 22.0 N 0.0 1031.6
04:20 14.1 61 6.7 14.2 23.4 N 0.0 1031.8
04:30 14.1 61 6.7 11.4 23.4 NW 0.0 1031.6
04:40 13.9 62 6.7 10.8 18.4 N 0.0 1031.7
04:50 13.9 62 6.7 12.9 24.5 N 0.0 1031.6
05:00 13.8 62 6.6 13.8 22.0 N 0.0 1031.8
05:10 13.7 62 6.6 13.0 22.0 N 0.0 1031.8
05:20 13.7 61 6.3 12.9 23.4 N 0.0 1031.7
05:30 13.7 61 6.3 13.7 27.0 N 0.0 1032.2
05:40 13.7 61 6.3 13.1 25.6 N 0.0 1032.4
05:50 13.6 61 6.2 13.1 25.6 NNE 0.0 1032.4
06:00 13.6 61 6.2 15.6 25.6 N 0.0 1032.7
06:10 13.5 61 6.1 13.3 25.6 NW 0.0 1032.9
06:20 13.4 61 6.0 13.8 25.6 NNE 0.0 1032.9
06:30 13.4 61 6.0 15.8 29.5 N 0.0 1033.1
06:40 13.4 61 6.0 14.9 27.0 N 0.0 1033.2
06:50 13.3 61 5.9 14.8 27.0 N 0.0 1033.2
07:00 13.4 61 6.0 14.4 25.6 N 0.0 1033.4
07:10 13.4 61 6.0 14.8 29.5 N 0.0 1033.6
07:20 13.5 60 5.9 18.8 33.1 N 0.0 1033.7
07:30 13.7 60 6.1 19.8 34.2 N 0.0 1033.5
07:40 13.9 59 6.0 16.1 35.6 NNW 0.0 1033.5
07:50 14.1 58 6.0 19.4 35.6 N 0.0 1033.6
08:00 14.3 57 5.9 18.9 34.2 N 0.0 1033.6
08:10 14.5 57 6.1 15.2 28.1 NNW 0.0 1033.8
08:20 14.7 57 6.3 16.4 35.6 N 0.0 1033.7
08:30 15.0 56 6.3 17.9 29.5 N 0.0 1033.8
08:40 15.1 56 6.4 17.4 34.2 N 0.0 1033.7
08:50 15.3 55 6.3 16.1 34.2 N 0.0 1033.6
09:00 15.7 55 6.7 16.4 34.2 NNW 0.0 1033.6
09:10 15.9 54 6.6 18.9 35.6 NNE 0.0 1033.7
09:20 16.1 53 6.5 17.1 36.7 NNE 0.0 1033.7
09:30 16.4 52 6.5 17.0 33.1 N 0.0 1033.7
09:40 16.5 52 6.6 20.4 33.1 N 0.0 1033.5
09:50 16.7 52 6.8 19.5 34.2 N 0.0 1033.4
10:00 17.0 51 6.8 16.5 28.1 N 0.0 1033.3
10:10 17.3 51 7.1 13.7 27.0 N 0.0 1033.2
10:20 17.8 51 7.5 15.1 27.0 N 0.0 1033.3
10:30 17.9 50 7.3 15.6 25.6 N 0.0 1033.1
10:40 18.5 49 7.6 13.2 31.7 NNW 0.0 1033.2
10:50 18.8 47 7.3 18.0 36.7 NNW 0.0 1032.8
11:00 18.8 47 7.3 19.4 33.1 NNW 0.0 1032.8
11:10 19.0 46 7.1 19.9 40.3 NW 0.0 1033.1
11:20 19.2 46 7.3 17.3 40.3 NW 0.0 1033.1
11:30 19.5 46 7.6 17.7 37.8 NNW 0.0 1033.2
11:40 19.5 46 7.6 22.8 45.4 NW 0.0 1033.1
11:50 19.9 46 7.9 16.4 31.7 NW 0.0 1033.0
12:00 20.0 45 7.7 22.1 45.4 NNW 0.0 1032.8
12:10 20.0 45 7.7 23.4 37.8 NNW 0.0 1032.8
12:20 20.1 44 7.5 18.7 39.2 NNW 0.0 1032.8
12:30 19.7 46 7.8 23.7 39.2 NNW 0.0 1032.9
12:40 19.9 46 7.9 23.4 40.3 NNW 0.0 1032.5
12:50 20.0 46 8.0 20.5 40.3 WNW 0.0 1032.5
13:00 20.0 45 7.7 18.1 33.1 NNW 0.0 1032.6
13:10 19.7 47 8.1 19.6 39.2 NW 0.0 1032.7
13:20 19.8 46 7.9 21.7 40.3 NNW 0.0 1032.5
13:30 19.5 46 7.6 23.5 39.2 NW 0.0 1032.3
13:40 19.1 48 7.8 18.3 34.2 NNW 0.0 1032.4
13:50 18.9 50 8.3 16.3 34.2 NW 0.0 1032.2
14:00 18.9 51 8.6 16.4 34.2 WNW 0.0 1032.4
14:10 18.8 51 8.5 16.3 31.7 NNW 0.0 1032.4
14:20 18.8 50 8.2 17.1 35.6 NW 0.0 1032.1
14:30 18.7 49 7.8 18.2 34.2 NNW 0.0 1031.9
14:40 18.8 49 7.9 18.9 34.2 NNW 0.0 1031.7
14:50 18.8 49 7.9 21.0 36.7 N 0.0 1031.6
15:00 18.9 49 8.0 20.4 42.8 N 0.0 1031.8
15:10 19.0 48 7.8 16.9 34.2 N 0.0 1031.7
15:20 19.0 50 8.4 16.1 35.6 N 0.0 1031.6
15:30 19.0 50 8.4 16.5 35.6 NNW 0.0 1031.9
15:40 19.0 50 8.4 16.2 33.1 NNW 0.0 1032.4
15:50 19.1 51 8.7 14.1 30.6 NW 0.0 1032.1
16:00 19.1 52 9.0 10.8 29.5 NW 0.0 1032.0
16:10 19.2 52 9.1 10.2 23.4 N 0.0 1032.1
16:20 19.1 51 8.7 17.1 30.6 NNW 0.0 1032.1
16:30 19.1 51 8.7 16.9 35.6 NNW 0.0 1032.1
16:40 19.1 52 9.0 11.6 23.4 NW 0.0 1032.1
16:50 19.1 52 9.0 12.8 30.6 NNW 0.0 1032.2
17:00 19.0 52 8.9 11.2 24.5 N 0.0 1032.3
17:10 18.9 53 9.1 10.9 25.6 N 0.0 1032.3
17:20 18.8 54 9.3 14.4 25.6 NNW 0.0 1032.2
17:30 18.7 55 9.5 11.8 27.0 N 0.0 1032.3
17:40 18.6 55 9.4 13.7 27.0 NNW 0.0 1032.2
17:50 18.5 55 9.3 12.5 25.6 NNW 0.0 1032.2
18:00 18.3 55 9.1 11.8 25.6 NNW 0.0 1031.8
18:10 18.2 55 9.0 8.8 19.4 NNW 0.0 1031.8
18:20 18.1 56 9.2 11.3 22.0 NNW 0.0 1031.6
18:30 18.0 56 9.1 13.7 22.0 N 0.0 1031.4
18:40 18.0 56 9.1 12.7 20.9 N 0.0 1031.4
18:50 17.9 55 8.7 10.8 22.0 N 0.0 1031.3
19:00 17.8 56 8.9 13.6 23.4 N 0.0 1031.2
19:10 17.7 57 9.1 13.6 23.4 N 0.0 1031.1
19:20 17.7 58 9.3 12.3 25.6 N 0.0 1031.2
19:30 17.5 58 9.2 11.5 20.9 N 0.0 1031.2
19:40 17.5 58 9.2 12.3 24.5 N 0.0 1031.2
19:50 17.4 59 9.3 14.6 28.1 NE 0.0 1030.8
20:00 17.3 59 9.2 14.1 29.5 N 0.0 1030.7
20:10 17.3 59 9.2 14.6 29.5 N 0.0 1030.9
20:20 17.3 59 9.2 15.1 31.7 NNW 0.0 1031.1
20:30 17.3 59 9.2 14.6 28.1 N 0.0 1030.7
20:40 17.2 59 9.1 15.1 29.5 N 0.0 1030.3
20:50 17.2 59 9.1 15.0 34.2 N 0.0 1030.0
21:00 17.1 60 9.3 15.4 30.6 NE 0.0 1029.9
21:10 17.1 60 9.3 15.2 29.5 N 0.0 1030.4
21:20 17.1 59 9.0 18.0 31.7 NNE 0.0 1030.4
21:30 17.0 60 9.2 13.7 25.6 NNE 0.0 1030.5
21:40 17.0 60 9.2 12.2 25.6 NNW 0.0 1030.1
21:50 17.0 60 9.2 9.9 24.5 N 0.0 1030.2
22:00 17.0 58 8.7 12.6 20.9 NNE 0.0 1030.3
22:10 17.1 58 8.8 10.3 25.6 N 0.0 1030.5
22:20 17.0 58 8.7 11.1 24.5 N 0.0 1030.5
22:30 17.0 58 8.7 9.1 18.4 N 0.0 1031.1
22:40 16.9 59 8.8 6.4 12.2 NW 0.0 1031.3
22:50 16.9 60 9.1 6.3 11.2 NW 0.0 1031.3
23:00 16.8 60 9.0 4.1 7.2 NW 0.0 1031.4
23:10 16.7 61 9.1 3.7 6.1 WNW 0.0 1031.6
23:20 16.6 62 9.3 3.1 7.2 NW 0.0 1031.3
23:30 16.5 62 9.2 4.3 8.6 WNW 0.0 1031.2
23:40 16.5 62 9.2 3.5 7.2 NNW 0.0 1031.2
23:50 16.4 62 9.1 2.4 6.1 NW 0.0 1031.3